• Join FlightAware (Why Join?)
  • Login
  • US Flag 
10:11AM EDT


 

Airport Tracker/Info


-or-


 

Live Flight TrackerFlight Track Log ✈ SWA265 ✈ 24-Apr-2013 ✈ KBWI - KPWM

Flight Track Log - Related Links

Times and Time Zones

All times are in EDT time to prevent confusion due to time zone crossing. See the SWA265 flight status page for this flight to view local times or setup timezone preferences in your user account.

Time Position Orientation Groundspeed Altitude Reporting Facility
EDT Latitude Longitude Course Direction KTS MPH feet Rate Location/Type
03:48PM 39.0639 -76.5539 90° East 208 239 6,700  Level Washington Center
03:49PM 39.0750 -76.4472 82° East 240 276 10,000 3,420 Climbing Washington Center
03:50PM 39.1111 -76.3378 67° East 291 335 13,600 3,000 Climbing Washington Center
03:51PM 39.1078 -76.2122 92° East 317 365 16,000 1,740 Climbing Washington Center
03:52PM 39.1667 -76.6132 90° East  Level FlightAware Approximate
03:52PM 39.1042 -76.0944 92° East 341 392 17,100  Level Washington Center
03:53PM 39.1500 -76.4610 90° East  Level FlightAware Approximate
03:53PM 39.1128 -75.9714 85° East 353 406 19,800  Level Washington Center
03:54PM 39.1922 -75.8836 41° Northeast 326 375 21,800 2,040 Climbing Washington Center
03:55PM 39.2717 -75.7819 45° Northeast 361 415 23,900 2,160 Climbing Washington Center
03:56PM 39.3550 -75.6747 45° Northeast 394 453 26,200 2,520 Climbing Washington Center
03:57PM 39.4531 -75.5969 31° Northeast 406 467 29,000 2,220 Climbing Washington Center
03:58PM 39.5594 -75.5136 31° Northeast 411 473 30,700 1,200 Climbing Washington Center
03:59PM 39.6675 -75.4272 32° Northeast 428 493 31,500 1,380 Climbing Washington Center
04:00PM 39.7758 -75.3322 34° Northeast 447 514 33,500 1,740 Climbing Washington Center
04:01PM 39.8733 -75.2292 39° Northeast 452 520 35,000 960 Climbing Washington Center
04:01PM 39.9131 -75.1581 54° Northeast 458 527 35,000  Level New York Center
04:02PM 39.9742 -75.0264 59° Northeast 468 539 35,000  Level New York Center
04:03PM 40.0381 -74.8731 61° Northeast 468 539 35,000 -60 Level New York Center
04:04PM 40.0992 -74.7300 61° Northeast 455 524 34,900 -780 Descending New York Center
04:06PM 40.2439 -74.4500 56° Northeast 467 537 32,700 -1,200 Descending New York Center
04:07PM 40.3408 -74.3464 39° Northeast 459 528 31,400 -1,380 Descending New York Center
04:08PM 40.4236 -74.2197 49° Northeast 459 528 30,000 -1,200 Descending New York Center
04:11PM 40.6636 -73.8656 48° Northeast 467 537 27,000 -780 Descending Boston Center
04:12PM 40.7508 -73.7358 48° Northeast 462 532 27,000  Level Boston Center
04:13PM 40.8461 -73.5786 51° Northeast 462 532 27,000  Level Boston Center
04:14PM 40.9286 -73.4564 48° Northeast 457 526 27,000  Level Boston Center
04:15PM 41.0192 -73.3342 45° Northeast 457 526 27,000  Level Boston Center
04:16PM 41.1036 -73.2114 48° Northeast 451 519 27,000  Level Boston Center
04:17PM 41.1814 -73.0800 52° Northeast 451 519 27,000  Level Boston Center
04:18PM 41.2489 -72.9369 58° Northeast 451 519 27,000  Level Boston Center
04:19PM 41.3183 -72.7911 58° Northeast 456 525 27,000  Level Boston Center
04:20PM 41.3853 -72.6447 59° Northeast 456 525 27,000  Level Boston Center
04:21PM 41.4522 -72.5011 58° Northeast 456 525 27,000  Level Boston Center
04:22PM 41.5167 -72.3569 59° Northeast 451 519 27,000  Level Boston Center
04:23PM 41.5853 -72.2153 57° Northeast 451 519 27,000  Level Boston Center
04:24PM 41.6517 -72.0678 59° Northeast 451 519 27,000  Level Boston Center
04:25PM 41.7178 -71.9200 59° Northeast 451 519 27,000  Level Boston Center
04:26PM 41.7836 -71.7719 59° Northeast 451 519 27,000  Level Boston Center
04:27PM 41.8472 -71.6264 60° Northeast 456 525 27,000  Level Boston Center
04:28PM 41.9086 -71.4750 61° Northeast 451 519 27,000  Level Boston Center
04:29PM 41.9656 -71.3206 64° Northeast 451 519 27,000  Level Boston Center
04:30PM 42.0561 -71.2069 43° Northeast 440 506 27,000  Level Boston Center
04:31PM 42.1528 -71.1014 39° Northeast 440 506 27,000  Level Boston Center
04:32PM 42.2472 -70.9928 40° Northeast 440 506 27,000 -240 Level Boston Center
04:33PM 42.3378 -70.8897 40° Northeast 440 506 26,600 -1,440 Descending Boston Center
04:34PM 42.4300 -70.7833 40° Northeast 429 494 24,200 -1,320 Descending Boston Center
04:35PM 42.5353 -70.7186 24° Northeast 418 481 24,000 -480 Descending Boston Center
04:36PM 42.6492 -70.6589 21° North 418 481 23,300 -1,560 Descending Boston Center
04:37PM 42.7503 -70.5967 24° Northeast 411 473 20,900 -2,400 Descending Boston Center
04:38PM 42.8492 -70.5342 25° Northeast 401 461 18,600 -2,400 Descending Boston Center
04:39PM 42.9586 -70.4656 25° Northeast 391 450 16,100 -2,340 Descending Boston Center
04:40PM 43.0408 -70.4089 27° Northeast 381 438 14,000 -2,280 Descending Boston Center
04:41PM 43.1372 -70.3261 32° Northeast 371 427 11,600 -1,740 Descending Boston Center
04:42PM 43.2236 -70.2547 31° Northeast 363 418 10,600 -900 Descending Boston Center
04:43PM 43.3042 -70.2147 20° North 329 379 9,900 -1,140 Descending Boston Center
04:44PM 43.3825 -70.1775 19° North 297 342 8,400 -1,560 Descending Boston Center
04:45PM 43.4506 -70.1464 18° North 286 329 6,800 -1,740 Descending Boston Center
04:46PM 43.5353 -70.1089 18° North 286 329 5,000 -1,500 Descending Boston Center
04:47PM 43.5997 -70.0978 North 271 312 3,800 -1,140 Descending Boston Center
04:48PM 43.6511 -70.1617 318° Northwest 232 267 2,800 -900 Descending Boston Center
04:49PM 43.6625 -70.2186 285° West 192 221 2,100 -1,140 Descending Boston Center
04:50PM 43.6447 -70.2708 245° Southwest 143 165 600 -960 Descending Boston Center
04:51PM 43.6417 -70.3228 265° West 143 165 200 5,160 Descending Boston Center
04:52PM 43.6364 -70.3744 262° West 143 165 11,000 5,400 Climbing Boston Center
04:53PM 43.6331 -70.4233 265° West 143 165 11,000  Level Boston Center
04:54PM 43.6278 -70.4753 262° West 143 165 11,000  Level Boston Center
04:55PM 43.6261 -70.5039 265° West 143 165 11,000  Level Boston Center
04:57PM 43.6500 -70.5232 90° East  Level FlightAware Approximate
05:04PM 43.6333 -70.3000 101° East  Level FlightAware Approximate
05:05PM 43.6456 -70.3086 101° East  Level Estimated
05:06PM 43.6456 -70.3086 101° East  Level Estimated